Crab Orchard, WV (25827)

3:16 AM EST on December 06, 2016 (GMT -0500)
Fairdale | | Change Station

Elev 1938 ft 37.74 °N, 81.35 °W | Updated 6 seconds ago

Overcast
Overcast
46.9 °F
Feels Like 44 °F
N
6.0
Wind Variable Wind from NNW
Gusts 6.0 mph

Today
High -- | Low -- °F
--% Chance of Precip.
Yesterday
High -- | Low -- °F
Precip. -- in
Pressure 29.92 in
Visibility 10.0 miles
Clouds Scattered Clouds 7500 ft
Overcast 9000 ft
Windchill 44 °F
Dew Point 35 °F
Humidity 62%
Rainfall 0.00 in
Snow Depth Not available.
7:26 AM 5:05 PM
Waxing Crescent, 39% visible
METAR KBKW 060751Z AUTO 13020G30KT 10SM SCT075 OVC090 06/02 A2990 RMK AO2 PK WND 15033/0741 CIG 070 RWY19 SLP131 T00610017
Pressure 29.92 in
Visibility 10.0 miles
Clouds Scattered Clouds 7500 ft
Overcast 9000 ft
Windchill 44 °F
Dew Point 35 °F
Humidity 62%
Rainfall 0.00 in
Snow Depth Not available.
7:26 AM 5:05 PM
Waxing Crescent, 39% visible
METAR KBKW 060751Z AUTO 13020G30KT 10SM SCT075 OVC090 06/02 A2990 RMK AO2 PK WND 15033/0741 CIG 070 RWY19 SLP131 T00610017

10-Day Weather Forecast

Almanac

Astronomy

Dec. 06, 2016 Rise Set
Actual Time
Civil Twilight
Nautical Twilight
Astronomical Twilight
Moon
Length of Visible Light
Length of Day
Tomorrow will be .
, % of the Moon is Illuminated

Today's Extremes

State Highs State Lows

Community

WunderPhotos

Upload Photos

1,955,930 photos uploaded!

WunderBlog® & News

Nearby

Air Quality

  Air Quality AQ Index Pollutant
Not available.

Snow Depth

Station Depth Elevation

Earthquake Activity

City Distance Mag. Time & Date
Minimum magnitude displayed is 2.5.

Coastal Water Temperatures

Place Temperature

Stations

Nearby Weather Stations

Station Location Temp. Windchill Dew Point Humidity Wind Precip. Elev Updated Type
                   

Watches & Warnings

There are currently no watches in effect.